Time;durP1;ratioP1;P1;durP2;ratioP2;P2;SDS_P1;SDS_P2;PMS_P1;PMS_P2;Temp;Humidity;BMP_temperature;BMP_pressure;BME280_temperature;BME280_humidity;BME280_pressure;Samples;Min_cycle;Max_cycle;Signal;HPM_P1;HPM_P2
2023/04/02 00:01:39;;;;;;;2.38;0.60;;;6.10;99.90;;;;;;5097412;28;20028;-84
2023/04/02 00:04:25;;;;;;;1.33;0.60;;;6.00;99.90;;;;;;5115390;28;20120;-84
2023/04/02 00:07:29;;;;;;;1.13;0.60;;;6.00;99.90;;;;;;5115721;28;20019;-83
2023/04/02 00:09:56;;;;;;;2.38;0.80;;;6.00;99.90;;;;;;5097304;28;20520;-83
2023/04/02 00:12:22;;;;;;;1.60;0.60;;;6.00;99.90;;;;;;5097127;28;20030;-84
2023/04/02 00:14:52;;;;;;;1.50;0.70;;;6.00;99.90;;;;;;5080549;28;20034;-84
2023/04/02 00:17:21;;;;;;;0.52;0.40;;;6.00;99.90;;;;;;5115544;28;20016;-84
2023/04/02 00:19:59;;;;;;;1.77;0.70;;;6.00;99.90;;;;;;5097124;28;20027;-84
2023/04/02 00:22:28;;;;;;;0.65;0.50;;;6.00;99.90;;;;;;5115127;28;20030;-84
2023/04/02 00:24:56;;;;;;;0.93;0.50;;;6.00;99.90;;;;;;5115418;28;20090;-84
2023/04/02 00:27:22;;;;;;;1.10;0.60;;;6.00;99.90;;;;;;5096919;28;20024;-84
2023/04/02 00:29:53;;;;;;;0.57;0.45;;;5.90;99.90;;;;;;5096991;28;20435;-85
2023/04/02 00:32:29;;;;;;;0.80;0.40;;;5.90;99.90;;;;;;5096991;28;20024;-84
2023/04/02 00:34:56;;;;;;;0.75;0.50;;;5.90;99.90;;;;;;5096787;28;20562;-84
2023/04/02 00:37:27;;;;;;;1.40;0.63;;;5.80;99.90;;;;;;5096980;28;20500;-84
2023/04/02 00:40:21;;;;;;;1.60;0.70;;;5.80;99.90;;;;;;5115029;28;20019;-84
2023/04/02 00:42:48;;;;;;;1.83;0.90;;;5.80;99.90;;;;;;5089100;28;20031;-85
2023/04/02 00:45:24;;;;;;;2.10;0.90;;;5.80;99.90;;;;;;5114902;28;20051;-84
2023/04/02 00:47:51;;;;;;;2.40;1.02;;;5.80;99.90;;;;;;5096748;28;20020;-84
2023/04/02 00:50:39;;;;;;;0.93;0.63;;;5.80;99.90;;;;;;5096582;28;20038;-84
2023/04/02 00:53:15;;;;;;;1.40;0.60;;;5.90;99.90;;;;;;5114895;28;20030;-84
2023/04/02 00:55:42;;;;;;;0.93;0.50;;;5.90;99.90;;;;;;5096626;28;20055;-83
2023/04/02 00:58:31;;;;;;;1.10;0.63;;;5.90;99.90;;;;;;5096630;28;20023;-84
2023/04/02 01:00:58;;;;;;;1.13;0.68;;;5.90;99.90;;;;;;5096777;28;20110;-84
2023/04/02 01:03:37;;;;;;;2.17;0.70;;;5.90;99.90;;;;;;5094723;28;20394;-84
2023/04/02 01:06:14;;;;;;;0.80;0.50;;;5.90;99.90;;;;;;5097128;28;20016;-85
2023/04/02 01:09:14;;;;;;;1.95;0.77;;;5.90;99.90;;;;;;5095854;28;20073;-85
2023/04/02 01:11:51;;;;;;;1.17;0.60;;;5.90;99.90;;;;;;5078200;28;20389;-85
2023/04/02 01:14:17;;;;;;;0.77;0.50;;;5.90;99.90;;;;;;5079263;28;20027;-85
2023/04/02 01:16:55;;;;;;;2.30;0.80;;;5.80;99.90;;;;;;5079069;28;20093;-85
2023/04/02 01:20:00;;;;;;;1.42;0.60;;;5.80;99.90;;;;;;5096288;28;20440;-84
2023/04/02 01:22:29;;;;;;;0.88;0.50;;;5.80;99.90;;;;;;5077567;28;20023;-85
2023/04/02 01:24:58;;;;;;;1.33;0.70;;;5.70;99.90;;;;;;5096478;28;20022;-84
2023/04/02 01:27:33;;;;;;;1.90;0.65;;;5.70;99.90;;;;;;5061413;28;20039;-84
2023/04/02 01:30:00;;;;;;;1.23;0.60;;;5.60;99.90;;;;;;5096687;28;20101;-84
2023/04/02 01:32:28;;;;;;;1.67;0.80;;;5.60;99.90;;;;;;5077250;28;20024;-84
2023/04/02 01:34:55;;;;;;;1.20;0.70;;;5.60;99.90;;;;;;5077682;28;20077;-85
2023/04/02 01:37:48;;;;;;;2.33;0.80;;;5.50;99.90;;;;;;5078940;28;20032;-85
2023/04/02 01:40:41;;;;;;;0.98;0.50;;;5.50;99.90;;;;;;5095498;28;20028;-84
2023/04/02 01:43:41;;;;;;;1.25;0.50;;;5.40;99.90;;;;;;5078652;28;20020;-84
2023/04/02 01:46:27;;;;;;;1.40;0.70;;;5.40;99.90;;;;;;5115969;28;20032;-84
2023/04/02 01:48:55;;;;;;;0.95;0.40;;;5.40;99.90;;;;;;5116587;28;20020;-84
2023/04/02 01:51:29;;;;;;;1.20;0.65;;;5.40;99.90;;;;;;5098646;28;20070;-84
2023/04/02 01:53:58;;;;;;;2.40;0.98;;;5.30;99.90;;;;;;5098601;28;20509;-83
2023/04/02 01:56:26;;;;;;;3.90;1.13;;;5.30;99.90;;;;;;5115414;28;20030;-83
2023/04/02 01:58:52;;;;;;;2.20;0.90;;;5.30;99.90;;;;;;5093694;28;20378;-85
2023/04/02 02:01:22;;;;;;;2.40;0.80;;;5.40;99.90;;;;;;5079728;28;20035;-85
2023/04/02 02:03:49;;;;;;;1.80;0.80;;;5.40;99.90;;;;;;5079812;28;20032;-85
2023/04/02 02:06:17;;;;;;;1.73;0.90;;;5.40;99.90;;;;;;5079446;28;20025;-85
2023/04/02 02:08:48;;;;;;;1.30;0.70;;;5.40;99.90;;;;;;5097650;28;20032;-85
2023/04/02 02:11:17;;;;;;;1.10;0.70;;;5.40;99.90;;;;;;5097122;28;20048;-85
2023/04/02 02:13:53;;;;;;;0.70;0.50;;;5.40;99.90;;;;;;5078760;28;20030;-85
2023/04/02 02:16:20;;;;;;;0.93;0.40;;;5.40;99.90;;;;;;5079956;28;20058;-85
2023/04/02 02:18:51;;;;;;;1.63;0.57;;;5.40;99.90;;;;;;5065263;28;20077;-85
2023/04/02 02:21:37;;;;;;;0.73;0.43;;;5.40;99.90;;;;;;5082456;28;20182;-85
2023/04/02 02:24:05;;;;;;;2.28;0.70;;;5.40;99.90;;;;;;5100410;28;20024;-85
2023/04/02 02:26:35;;;;;;;1.67;0.60;;;5.30;99.90;;;;;;5082574;28;20060;-85
2023/04/02 02:29:06;;;;;;;1.40;0.70;;;5.30;99.90;;;;;;5048576;28;20500;-85
2023/04/02 02:31:34;;;;;;;1.05;0.57;;;5.30;99.90;;;;;;5099822;28;20089;-85
2023/04/02 02:34:05;;;;;;;3.97;0.60;;;5.40;99.90;;;;;;5099780;28;20032;-85
2023/04/02 02:36:51;;;;;;;2.72;0.80;;;5.40;99.90;;;;;;5099754;28;20028;-85
2023/04/02 02:39:24;;;;;;;0.80;0.50;;;5.30;99.90;;;;;;5099926;28;20031;-85
2023/04/02 02:42:07;;;;;;;1.88;0.82;;;5.30;99.90;;;;;;5081399;28;20047;-85
2023/04/02 02:44:35;;;;;;;1.17;0.90;;;5.30;99.90;;;;;;5099719;28;20118;-86
2023/04/02 02:47:05;;;;;;;2.00;1.20;;;5.30;99.90;;;;;;5064618;28;20032;-85
2023/04/02 02:49:35;;;;;;;1.98;0.95;;;5.30;99.90;;;;;;5081174;28;20110;-85
2023/04/02 02:52:21;;;;;;;1.88;0.60;;;5.30;99.90;;;;;;5098982;28;20028;-86
2023/04/02 02:55:10;;;;;;;1.20;0.60;;;5.30;99.90;;;;;;5080715;28;20111;-85
2023/04/02 02:57:47;;;;;;;1.15;0.60;;;5.30;99.90;;;;;;5080660;28;20482;-84
2023/04/02 03:00:15;;;;;;;1.83;0.85;;;5.30;99.90;;;;;;5098777;28;20435;-85
2023/04/02 03:02:42;;;;;;;2.65;1.10;;;5.20;99.90;;;;;;5080420;28;20517;-85
2023/04/02 03:05:08;;;;;;;4.13;1.02;;;5.20;99.90;;;;;;5080865;28;20127;-84
2023/04/02 03:07:36;;;;;;;0.95;0.70;;;5.20;99.90;;;;;;5063522;28;20482;-85
2023/04/02 03:10:22;;;;;;;2.05;0.90;;;5.20;99.90;;;;;;5063200;28;20034;-85
2023/04/02 03:13:21;;;;;;;1.42;0.73;;;5.10;99.90;;;;;;5080267;28;20480;-85
2023/04/02 03:16:05;;;;;;;1.55;0.90;;;5.10;99.90;;;;;;5079450;28;20512;-86
2023/04/02 03:19:10;;;;;;;1.35;0.77;;;5.10;99.90;;;;;;5079765;28;20020;-85
2023/04/02 03:22:01;;;;;;;1.42;0.80;;;5.20;99.90;;;;;;5079512;28;20050;-85
2023/04/02 03:24:45;;;;;;;0.80;0.50;;;5.20;99.90;;;;;;5079514;28;20047;-84
2023/04/02 03:27:22;;;;;;;2.03;0.90;;;5.20;99.90;;;;;;5079198;28;20031;-85
2023/04/02 03:30:26;;;;;;;1.55;0.80;;;5.20;99.90;;;;;;5078595;28;20026;-85
2023/04/02 03:32:56;;;;;;;2.03;1.40;;;5.20;99.90;;;;;;5079108;28;20063;-85
2023/04/02 03:35:46;;;;;;;2.35;1.23;;;5.20;99.90;;;;;;5078997;28;20061;-85
2023/04/02 03:38:31;;;;;;;2.95;1.70;;;5.10;99.90;;;;;;5079146;28;20028;-85
2023/04/02 03:41:29;;;;;;;5.80;2.58;;;5.10;99.90;;;;;;5097171;28;20419;-85
2023/04/02 03:44:06;;;;;;;2.15;1.02;;;5.10;99.90;;;;;;5078492;28;20032;-85
2023/04/02 03:46:47;;;;;;;1.40;0.80;;;5.10;99.90;;;;;;5079057;28;20051;-85
2023/04/02 03:49:22;;;;;;;1.30;0.70;;;5.10;99.90;;;;;;5097049;28;20030;-85
2023/04/02 03:51:54;;;;;;;2.10;0.90;;;5.10;99.90;;;;;;5097111;28;20028;-85
2023/04/02 03:54:21;;;;;;;2.63;1.42;;;5.10;99.90;;;;;;5078232;28;20020;-85
2023/04/02 03:56:47;;;;;;;3.40;2.00;;;5.00;99.90;;;;;;5078563;28;20044;-85
2023/04/02 03:59:32;;;;;;;4.45;2.67;;;5.00;99.90;;;;;;5061905;28;20027;-84
2023/04/02 04:02:06;;;;;;;3.58;2.35;;;4.90;99.90;;;;;;5096867;28;20103;-84
2023/04/02 04:04:34;;;;;;;3.75;1.88;;;4.90;99.90;;;;;;5078453;28;20020;-85
2023/04/02 04:07:00;;;;;;;2.47;1.38;;;4.90;99.90;;;;;;5061834;28;20032;-85
2023/04/02 04:09:30;;;;;;;1.90;1.00;;;4.80;99.90;;;;;;5078493;28;20028;-84
2023/04/02 04:12:31;;;;;;;1.95;0.82;;;4.80;99.90;;;;;;5096329;28;20024;-84
2023/04/02 04:15:47;;;;;;;1.73;1.00;;;4.80;99.90;;;;;;5096641;28;20451;-84
2023/04/02 04:18:23;;;;;;;3.08;1.42;;;4.90;99.90;;;;;;5061555;28;20032;-85
2023/04/02 04:21:00;;;;;;;23.45;11.23;;;4.90;99.90;;;;;;5077882;28;20024;-84
2023/04/02 04:23:32;;;;;;;34.03;16.70;;;4.90;99.90;;;;;;5096031;28;20027;-85
2023/04/02 04:26:10;;;;;;;134.15;54.70;;;4.90;99.90;;;;;;5095830;28;20027;-84
2023/04/02 04:29:14;;;;;;;27.75;12.50;;;4.90;99.90;;;;;;5095838;28;20046;-84
2023/04/02 04:31:54;;;;;;;18.00;8.45;;;4.90;99.90;;;;;;5057884;28;20043;-85
2023/04/02 04:34:41;;;;;;;13.82;7.13;;;4.80;99.90;;;;;;5061465;28;20036;-85
2023/04/02 04:37:23;;;;;;;13.35;6.68;;;4.80;99.90;;;;;;5095533;28;20024;-85
2023/04/02 04:40:10;;;;;;;8.00;3.38;;;4.80;99.90;;;;;;5061257;28;20020;-84
2023/04/02 04:42:40;;;;;;;4.00;2.50;;;4.80;99.90;;;;;;5095702;28;20020;-84
2023/04/02 04:45:11;;;;;;;4.60;2.10;;;4.80;99.90;;;;;;5077310;28;20070;-84
2023/04/02 04:48:09;;;;;;;3.95;1.95;;;4.80;99.90;;;;;;5077153;28;20028;-83
2023/04/02 04:50:47;;;;;;;3.13;1.90;;;4.80;99.90;;;;;;5095482;28;20027;-83
2023/04/02 04:53:18;;;;;;;4.40;2.10;;;4.80;99.90;;;;;;5077548;28;20020;-82
2023/04/02 04:55:46;;;;;;;4.13;2.45;;;4.80;99.90;;;;;;5095754;28;20024;-80
2023/04/02 04:58:20;;;;;;;4.93;3.00;;;4.90;99.90;;;;;;5096638;28;20474;-80
2023/04/02 05:01:17;;;;;;;8.43;3.83;;;4.80;99.90;;;;;;5096289;28;20060;-80
2023/04/02 05:04:02;;;;;;;7.45;3.83;;;4.80;99.90;;;;;;5077489;28;20035;-81
2023/04/02 05:07:09;;;;;;;6.88;3.88;;;4.80;99.90;;;;;;5096694;28;20050;-80
2023/04/02 05:09:56;;;;;;;7.55;3.55;;;4.80;99.90;;;;;;5096066;28;20036;-79
2023/04/02 05:12:40;;;;;;;4.03;2.50;;;4.80;99.90;;;;;;5096645;28;20030;-79
2023/04/02 05:15:14;;;;;;;3.95;2.63;;;4.80;99.90;;;;;;5096610;28;20031;-78
2023/04/02 05:18:15;;;;;;;3.85;2.60;;;4.80;99.90;;;;;;5078374;28;20031;-79
2023/04/02 05:20:51;;;;;;;4.75;3.33;;;4.70;99.90;;;;;;5078464;28;20016;-78
2023/04/02 05:23:27;;;;;;;5.70;3.88;;;4.70;99.90;;;;;;5096197;28;20016;-79
2023/04/02 05:26:20;;;;;;;5.75;3.53;;;4.70;99.90;;;;;;5096895;28;20020;-79
2023/04/02 05:29:05;;;;;;;5.45;3.22;;;4.70;99.90;;;;;;5096193;28;20363;-79
2023/04/02 05:31:42;;;;;;;9.15;4.90;;;4.70;99.90;;;;;;5096421;28;20568;-78
2023/04/02 05:34:10;;;;;;;13.52;6.90;;;4.70;99.90;;;;;;5096906;28;20084;-79
2023/04/02 05:36:36;;;;;;;14.75;7.30;;;4.70;99.90;;;;;;5095269;28;20025;-79
2023/04/02 05:39:06;;;;;;;10.60;6.70;;;4.80;99.90;;;;;;5078328;28;20312;-79
2023/04/02 05:41:37;;;;;;;8.25;4.75;;;4.80;99.90;;;;;;5096521;28;20016;-78
2023/04/02 05:44:25;;;;;;;7.38;2.53;;;4.80;99.90;;;;;;5078433;28;20028;-78
2023/04/02 05:46:54;;;;;;;3.60;1.77;;;4.90;99.90;;;;;;5096120;28;20095;-79
2023/04/02 05:49:31;;;;;;;2.38;1.42;;;4.90;99.90;;;;;;5078157;28;20035;-79
2023/04/02 05:52:01;;;;;;;2.45;1.50;;;4.90;99.90;;;;;;5097880;28;20512;-79
2023/04/02 05:54:44;;;;;;;2.30;1.10;;;4.90;99.90;;;;;;5081764;28;20070;-79
2023/04/02 05:57:19;;;;;;;3.75;1.83;;;4.90;99.90;;;;;;5100959;28;20027;-78
2023/04/02 05:59:54;;;;;;;3.08;1.80;;;4.90;99.90;;;;;;5100254;28;20069;-78
2023/04/02 06:03:08;;;;;;;2.60;1.60;;;4.90;99.90;;;;;;5100477;28;20402;-79
2023/04/02 06:05:43;;;;;;;2.83;1.65;;;5.00;99.90;;;;;;5082337;28;20501;-79
2023/04/02 06:08:34;;;;;;;3.92;1.40;;;5.00;99.90;;;;;;5082390;28;20020;-79
2023/04/02 06:11:12;;;;;;;1.95;1.20;;;5.00;99.90;;;;;;5100999;28;20024;-79
2023/04/02 06:13:38;;;;;;;2.58;1.35;;;5.00;99.90;;;;;;5101204;28;20028;-79
2023/04/02 06:16:05;;;;;;;2.72;1.77;;;5.10;99.90;;;;;;5100473;28;20020;-78
2023/04/02 06:18:34;;;;;;;2.67;1.60;;;5.10;99.90;;;;;;5083377;28;20028;-78
2023/04/02 06:21:04;;;;;;;2.85;1.80;;;5.10;99.90;;;;;;5095528;28;20028;-78
2023/04/02 06:24:00;;;;;;;3.00;1.58;;;5.20;99.90;;;;;;5099496;28;20098;-78
2023/04/02 06:26:35;;;;;;;3.35;1.65;;;5.20;99.90;;;;;;5117681;28;20016;-78
2023/04/02 06:29:15;;;;;;;3.00;1.80;;;5.30;99.90;;;;;;5099212;28;20030;-78
2023/04/02 06:31:52;;;;;;;5.03;1.98;;;5.30;99.90;;;;;;5099237;28;20374;-78
2023/04/02 06:34:20;;;;;;;3.00;1.90;;;5.30;99.90;;;;;;5099194;28;20043;-78
2023/04/02 06:36:47;;;;;;;4.03;2.13;;;5.30;99.90;;;;;;5117790;28;20452;-78
2023/04/02 06:39:19;;;;;;;2.83;1.55;;;5.30;99.90;;;;;;5099373;28;20023;-78
2023/04/02 06:41:45;;;;;;;3.03;2.00;;;5.30;99.90;;;;;;5117565;28;20020;-78
2023/04/02 06:44:20;;;;;;;3.22;1.60;;;5.40;99.90;;;;;;5099601;28;20030;-78
2023/04/02 06:46:53;;;;;;;3.50;1.80;;;5.40;99.90;;;;;;5118066;28;20035;-79
2023/04/02 06:49:35;;;;;;;2.97;1.67;;;5.40;99.90;;;;;;5118046;28;20492;-79
2023/04/02 06:52:02;;;;;;;;;;;5.50;99.90;;;;;;5118303;28;20023;-78
2023/04/02 06:54:28;;;;;;;3.03;1.58;;;5.50;99.90;;;;;;5099469;28;20258;-78
2023/04/02 06:56:55;;;;;;;2.88;1.73;;;5.60;99.90;;;;;;5082560;28;20030;-78
2023/04/02 06:59:21;;;;;;;5.32;1.50;;;5.60;99.90;;;;;;5117924;28;20053;-79
2023/04/02 07:01:57;;;;;;;3.13;1.70;;;5.60;99.90;;;;;;5117708;28;20420;-80
2023/04/02 07:04:24;;;;;;;2.85;1.50;;;5.70;99.90;;;;;;5117660;28;20023;-79
2023/04/02 07:06:50;;;;;;;3.80;1.98;;;5.70;99.90;;;;;;5118171;28;20032;-79
2023/04/02 07:09:16;;;;;;;2.53;1.55;;;5.80;99.90;;;;;;5118196;28;20073;-79
2023/04/02 07:11:42;;;;;;;3.22;1.83;;;5.80;99.90;;;;;;5099346;28;20042;-79
2023/04/02 07:14:11;;;;;;;66.38;36.85;;;5.90;99.90;;;;;;5099351;28;20032;-79
2023/04/02 07:16:38;;;;;;;42.90;21.65;;;5.90;99.90;;;;;;5099324;28;20027;-79
2023/04/02 07:19:04;;;;;;;40.90;20.58;;;6.00;99.90;;;;;;5100723;28;20020;-78
2023/04/02 07:21:30;;;;;;;20.73;10.18;;;6.00;99.90;;;;;;5101262;28;20024;-79
2023/04/02 07:23:56;;;;;;;16.52;7.55;;;6.10;99.90;;;;;;5119759;28;20031;-79
2023/04/02 07:26:25;;;;;;;15.77;6.65;;;6.20;99.90;;;;;;5065728;28;20028;-79
2023/04/02 07:28:51;;;;;;;11.98;5.40;;;6.20;99.90;;;;;;5100420;28;20020;-78
2023/04/02 07:31:23;;;;;;;8.98;4.72;;;6.30;99.90;;;;;;5100030;28;20181;-78
2023/04/02 07:33:49;;;;;;;5.47;3.70;;;6.30;99.90;;;;;;5099307;28;20502;-79
2023/04/02 07:36:21;;;;;;;10.07;7.50;;;6.40;99.90;;;;;;5082381;28;20057;-78
2023/04/02 07:38:47;;;;;;;5.38;3.63;;;6.50;99.90;;;;;;5099621;28;20047;-78
2023/04/02 07:41:14;;;;;;;6.80;4.53;;;6.50;99.90;;;;;;5083378;28;20110;-78
2023/04/02 07:43:41;;;;;;;4.22;2.80;;;6.60;99.90;;;;;;5080440;28;20496;-78
2023/04/02 07:46:08;;;;;;;5.28;3.20;;;6.60;99.90;;;;;;5097384;28;20145;-78
2023/04/02 07:48:34;;;;;;;8.88;5.28;;;6.70;99.90;;;;;;5096717;28;20077;-79
2023/04/02 07:51:02;;;;;;;8.75;5.88;;;6.80;99.90;;;;;;5096433;28;20032;-78
2023/04/02 07:53:36;;;;;;;7.80;3.50;;;6.80;99.90;;;;;;5096862;28;20028;-78
2023/04/02 07:56:03;;;;;;;8.35;4.95;;;6.90;99.90;;;;;;5062740;28;20089;-78
2023/04/02 07:58:30;;;;;;;7.50;2.42;;;7.00;99.90;;;;;;5096569;28;20099;-78
2023/04/02 08:00:57;;;;;;;4.25;2.20;;;7.10;99.90;;;;;;5096680;28;20462;-78
2023/04/02 08:03:23;;;;;;;6.90;3.15;;;7.10;99.90;;;;;;5097231;28;20413;-78
2023/04/02 08:05:50;;;;;;;8.15;2.78;;;7.10;99.90;;;;;;5062540;28;20028;-78
2023/04/02 08:08:16;;;;;;;5.45;2.53;;;7.20;99.90;;;;;;5096825;28;20111;-77
2023/04/02 08:10:41;;;;;;;12.07;7.78;;;7.20;99.90;;;;;;5079187;28;20082;-78
2023/04/02 08:13:07;;;;;;;6.20;3.40;;;7.20;99.90;;;;;;5086394;28;20500;-79
2023/04/02 08:15:33;;;;;;;14.40;8.65;;;7.30;99.90;;;;;;5095796;28;20029;-79
2023/04/02 08:17:59;;;;;;;18.30;9.32;;;7.40;99.90;;;;;;5061968;28;20024;-78
2023/04/02 08:20:25;;;;;;;10.55;5.43;;;7.50;99.90;;;;;;5078344;28;20043;-79
2023/04/02 08:22:51;;;;;;;70.07;32.60;;;7.60;99.90;;;;;;5096552;28;20125;-79
2023/04/02 08:25:17;;;;;;;153.55;69.75;;;7.70;99.90;;;;;;5078355;28;20056;-77
2023/04/02 08:27:46;;;;;;;9.68;4.95;;;7.80;99.90;;;;;;5078710;28;20078;-78
2023/04/02 08:30:12;;;;;;;30.17;16.67;;;7.90;99.90;;;;;;5081281;28;20049;-78
2023/04/02 08:32:39;;;;;;;18.67;7.70;;;8.00;99.90;;;;;;5065006;28;20085;-78
2023/04/02 08:35:07;;;;;;;17.45;9.13;;;8.00;99.90;;;;;;5115689;28;20118;-78
2023/04/02 08:37:33;;;;;;;6.55;3.75;;;8.10;99.90;;;;;;5098578;28;20024;-78
2023/04/02 08:39:58;;;;;;;4.80;2.78;;;8.10;99.90;;;;;;5098198;28;20081;-79
2023/04/02 08:42:37;;;;;;;3.40;2.13;;;8.10;99.90;;;;;;5116965;28;20049;-79
2023/04/02 08:45:21;;;;;;;5.05;2.63;;;8.20;99.90;;;;;;5098543;28;20023;-79
2023/04/02 08:47:50;;;;;;;4.72;2.20;;;8.20;99.90;;;;;;5116329;28;20051;-79
2023/04/02 08:50:18;;;;;;;4.90;1.40;;;8.20;99.90;;;;;;5098331;28;20027;-79
2023/04/02 08:52:44;;;;;;;2.05;1.20;;;8.20;99.90;;;;;;5115703;28;20453;-78
2023/04/02 08:55:41;;;;;;;2.80;1.83;;;8.20;99.90;;;;;;5097937;28;20023;-79
2023/04/02 08:58:13;;;;;;;8.73;5.18;;;8.20;99.90;;;;;;5116144;28;20084;-78
2023/04/02 09:00:41;;;;;;;3.55;1.73;;;8.20;99.90;;;;;;5097342;28;20026;-78
2023/04/02 09:03:28;;;;;;;5.22;2.35;;;8.30;99.90;;;;;;5115383;28;20018;-78
2023/04/02 09:05:56;;;;;;;3.42;1.70;;;8.30;99.90;;;;;;5096957;28;20028;-78
2023/04/02 09:08:24;;;;;;;3.67;2.00;;;8.30;99.90;;;;;;5096931;28;20030;-78
2023/04/02 09:11:22;;;;;;;2.97;2.20;;;8.30;99.90;;;;;;5116268;28;20020;-78
2023/04/02 09:13:56;;;;;;;16.33;8.57;;;8.40;99.90;;;;;;5081730;28;20477;-78
2023/04/02 09:16:37;;;;;;;3.38;1.88;;;8.40;99.90;;;;;;5116144;28;20085;-78
2023/04/02 09:19:16;;;;;;;3.58;1.60;;;8.50;99.90;;;;;;5097842;28;20481;-79
2023/04/02 09:21:58;;;;;;;6.50;3.55;;;8.60;99.90;;;;;;5116221;28;20027;-78
2023/04/02 09:24:25;;;;;;;10.13;4.93;;;8.70;99.90;;;;;;5115181;28;20042;-79
2023/04/02 09:26:50;;;;;;;3.08;1.13;;;8.70;99.90;;;;;;5115024;28;20465;-79
2023/04/02 09:29:43;;;;;;;3.20;1.58;;;8.70;99.90;;;;;;5115305;28;20106;-79
2023/04/02 09:32:11;;;;;;;3.90;1.55;;;8.80;99.90;;;;;;5114812;28;20056;-79
2023/04/02 09:34:37;;;;;;;3.22;1.77;;;8.80;99.90;;;;;;5115108;28;20123;-78
2023/04/02 09:37:15;;;;;;;2.83;1.50;;;8.90;99.90;;;;;;5097225;28;20024;-78
2023/04/02 09:39:41;;;;;;;2.78;1.55;;;8.90;99.90;;;;;;5097025;28;20031;-78
2023/04/02 09:42:40;;;;;;;2.60;1.35;;;9.10;99.90;;;;;;5079846;28;20028;-78
2023/04/02 09:45:22;;;;;;;2.22;1.02;;;9.10;99.90;;;;;;5115766;28;20023;-78
2023/04/02 09:47:52;;;;;;;3.28;1.35;;;9.10;99.90;;;;;;5114816;28;20117;-79
2023/04/02 09:50:22;;;;;;;3.22;1.10;;;9.10;99.90;;;;;;5114959;28;20085;-78
2023/04/02 09:52:49;;;;;;;2.60;0.52;;;9.20;99.90;;;;;;5097287;28;20447;-79
2023/04/02 09:55:15;;;;;;;1.38;0.40;;;9.20;99.90;;;;;;5114785;28;20016;-77
2023/04/02 09:57:41;;;;;;;2.95;0.40;;;9.30;99.90;;;;;;5114908;28;20095;-78
2023/04/02 10:00:17;;;;;;;2.15;0.50;;;9.30;99.90;;;;;;5115140;28;20096;-78
2023/04/02 10:02:45;;;;;;;1.35;0.60;;;9.40;99.90;;;;;;5115251;28;20055;-78
2023/04/02 10:05:22;;;;;;;1.20;0.50;;;9.40;99.90;;;;;;5114223;28;20015;-78
2023/04/02 10:07:50;;;;;;;1.42;0.50;;;9.40;99.90;;;;;;5097210;28;20035;-78
2023/04/02 10:10:35;;;;;;;0.77;0.43;;;9.40;99.90;;;;;;5115181;28;20026;-79
2023/04/02 10:13:13;;;;;;;1.98;1.00;;;9.40;99.90;;;;;;5096639;28;20020;-78
2023/04/02 10:15:48;;;;;;;1.42;0.60;;;9.40;99.90;;;;;;5115161;28;20077;-78
2023/04/02 10:18:27;;;;;;;3.05;0.80;;;9.40;99.90;;;;;;5115478;28;20116;-78
2023/04/02 10:20:55;;;;;;;3.80;0.60;;;9.40;99.90;;;;;;5114932;28;20020;-78
2023/04/02 10:23:26;;;;;;;1.10;0.50;;;9.40;99.90;;;;;;5114926;28;20027;-78
2023/04/02 10:26:10;;;;;;;2.15;0.60;;;9.40;99.90;;;;;;5114901;28;20055;-79
2023/04/02 10:28:39;;;;;;;2.53;0.70;;;9.30;99.90;;;;;;5114737;28;20051;-78
2023/04/02 10:31:19;;;;;;;0.90;0.57;;;9.40;99.90;;;;;;5096731;28;20028;-78
2023/04/02 10:33:49;;;;;;;3.35;0.68;;;9.50;99.90;;;;;;5114271;28;20023;-78
2023/04/02 10:36:56;;;;;;;2.63;0.47;;;9.50;99.90;;;;;;5114594;28;20034;-78
2023/04/02 10:39:35;;;;;;;2.58;1.02;;;9.50;99.90;;;;;;5034298;28;20112;-78
2023/04/02 10:42:20;;;;;;;3.15;1.23;;;9.50;99.90;;;;;;5019045;28;20049;-79
2023/04/02 10:44:59;;;;;;;2.25;0.82;;;9.60;99.90;;;;;;5092477;28;20032;-78
2023/04/02 10:47:41;;;;;;;2.65;0.80;;;9.70;99.90;;;;;;5118978;28;20095;-78
2023/04/02 10:50:34;;;;;;;2.60;0.50;;;9.90;99.90;;;;;;5117160;28;20028;-78
2023/04/02 10:53:20;;;;;;;1.08;0.40;;;10.00;99.90;;;;;;5118428;28;20016;-78
2023/04/02 10:56:08;;;;;;;0.47;0.40;;;10.00;99.90;;;;;;5118187;28;20027;-79
2023/04/02 10:58:52;;;;;;;1.67;0.40;;;10.00;99.90;;;;;;5100152;28;20020;-78
2023/04/02 11:01:25;;;;;;;2.55;0.63;;;10.10;99.90;;;;;;5118137;28;20020;-78
2023/04/02 11:04:23;;;;;;;2.53;0.60;;;10.20;99.90;;;;;;5099863;28;20505;-79
2023/04/02 11:06:55;;;;;;;2.30;0.47;;;10.20;99.90;;;;;;5103126;28;20036;-78
2023/04/02 11:09:23;;;;;;;;;;;10.20;99.90;;;;;;5101293;28;20023;-79
2023/04/02 11:11:53;;;;;;;1.52;1.05;;;10.20;99.90;;;;;;5119494;28;19911;-78
2023/04/02 11:14:26;;;;;;;2.38;0.60;;;10.30;99.90;;;;;;5119389;28;20034;-79
2023/04/02 11:16:54;;;;;;;1.83;0.82;;;10.40;99.90;;;;;;5101533;28;20527;-79
2023/04/02 11:19:29;;;;;;;2.08;0.60;;;10.60;99.90;;;;;;5102392;28;20032;-78
2023/04/02 11:22:03;;;;;;;2.72;0.68;;;10.90;99.90;;;;;;5133362;28;20038;-78
2023/04/02 11:24:30;;;;;;;1.00;0.43;;;11.00;99.90;;;;;;5133885;28;20079;-78
2023/04/02 11:27:08;;;;;;;4.35;0.60;;;11.00;99.90;;;;;;5134146;28;20079;-78
2023/04/02 11:29:40;;;;;;;1.17;0.50;;;11.10;99.90;;;;;;5135760;28;20051;-78
2023/04/02 11:32:14;;;;;;;;;;;11.20;99.90;;;;;;5117847;28;20077;-79
2023/04/02 11:34:40;;;;;;;2.22;0.50;;;11.20;99.90;;;;;;5133590;28;19961;-78
2023/04/02 11:37:30;;;;;;;1.40;0.40;;;11.30;99.90;;;;;;5121942;28;20025;-79
2023/04/02 11:39:58;;;;;;;1.33;0.50;;;11.40;99.90;;;;;;5119200;28;20098;-79
2023/04/02 11:42:25;;;;;;;1.13;0.50;;;11.40;99.90;;;;;;5067646;28;20375;-79
2023/04/02 11:44:53;;;;;;;2.10;0.47;;;11.30;99.90;;;;;;5119211;28;20030;-78
2023/04/02 11:47:29;;;;;;;1.45;0.75;;;11.30;99.60;;;;;;5100615;28;20473;-78
2023/04/02 11:49:56;;;;;;;1.25;0.40;;;11.20;99.50;;;;;;5099965;28;20456;-78
2023/04/02 11:52:51;;;;;;;3.40;0.80;;;11.10;98.00;;;;;;5117891;28;20031;-78
2023/04/02 11:55:21;;;;;;;2.30;0.60;;;11.00;99.90;;;;;;5088980;28;20085;-78
2023/04/02 11:58:05;;;;;;;1.60;0.40;;;10.80;99.90;;;;;;5118412;28;20061;-78
2023/04/02 12:01:01;;;;;;;0.35;0.25;;;10.80;99.90;;;;;;5117796;28;20031;-79
2023/04/02 12:03:51;;;;;;;2.78;0.60;;;10.60;99.90;;;;;;5117819;28;20019;-78
2023/04/02 12:06:38;;;;;;;2.13;0.50;;;10.50;99.90;;;;;;5100046;28;20577;-78
2023/04/02 12:09:24;;;;;;;0.75;0.35;;;10.20;99.90;;;;;;5100250;28;20550;-79
2023/04/02 12:11:53;;;;;;;3.50;0.68;;;10.00;99.90;;;;;;5119337;28;20027;-79
2023/04/02 12:14:44;;;;;;;2.65;0.60;;;9.90;99.90;;;;;;5100040;28;20020;-79
2023/04/02 12:17:34;;;;;;;1.33;0.57;;;9.80;99.90;;;;;;5118666;28;20030;-79
2023/04/02 12:20:22;;;;;;;1.38;0.40;;;9.70;99.90;;;;;;5117993;28;20512;-79
2023/04/02 12:22:51;;;;;;;1.23;0.60;;;9.70;99.90;;;;;;5118136;28;20023;-79
2023/04/02 12:25:30;;;;;;;2.05;0.90;;;9.60;99.90;;;;;;5099961;28;20030;-79
2023/04/02 12:28:18;;;;;;;1.80;0.88;;;9.60;99.90;;;;;;5117847;28;20020;-79
2023/04/02 12:30:46;;;;;;;1.48;0.70;;;9.70;99.90;;;;;;5118106;28;20363;-79
2023/04/02 12:33:21;;;;;;;1.10;0.50;;;9.70;99.90;;;;;;5099354;28;20026;-79
2023/04/02 12:35:53;;;;;;;1.20;0.50;;;9.80;99.90;;;;;;5117300;28;20059;-79
2023/04/02 12:38:43;;;;;;;2.47;0.60;;;9.90;99.90;;;;;;5116751;28;20020;-79
2023/04/02 12:41:26;;;;;;;1.42;0.60;;;10.00;99.90;;;;;;5117483;28;20031;-79
2023/04/02 12:44:03;;;;;;;1.95;0.88;;;10.00;99.90;;;;;;5098633;28;20020;-78
2023/04/02 12:46:31;;;;;;;1.77;0.63;;;10.00;99.90;;;;;;5117217;28;20511;-79
2023/04/02 12:49:24;;;;;;;1.98;0.63;;;10.00;99.90;;;;;;5098676;28;20545;-78
2023/04/02 12:51:50;;;;;;;0.93;0.43;;;10.10;99.90;;;;;;5098620;28;20028;-78
2023/04/02 12:54:19;;;;;;;4.20;0.50;;;10.00;99.90;;;;;;5116450;28;20043;-79
2023/04/02 12:56:46;;;;;;;2.05;0.73;;;10.00;99.90;;;;;;5098212;28;20121;-78
2023/04/02 12:59:28;;;;;;;1.65;0.70;;;10.00;99.90;;;;;;5116456;28;20486;-78
2023/04/02 13:01:56;;;;;;;1.85;0.90;;;10.00;99.90;;;;;;5115952;28;20027;-78
2023/04/02 13:04:22;;;;;;;1.40;0.60;;;10.00;99.90;;;;;;5116636;28;20023;-78
2023/04/02 13:06:51;;;;;;;1.88;0.80;;;10.00;99.90;;;;;;5097987;28;20036;-79
2023/04/02 13:09:44;;;;;;;1.48;0.52;;;10.00;99.90;;;;;;5098061;28;20027;-78
2023/04/02 13:12:25;;;;;;;5.47;2.20;;;10.10;99.90;;;;;;5116106;28;20019;-78
2023/04/02 13:14:56;;;;;;;2.83;1.00;;;10.10;99.90;;;;;;5117018;28;20554;-78
2023/04/02 13:17:39;;;;;;;;;;;10.10;99.90;;;;;;5082170;28;20420;-78
2023/04/02 13:20:41;;;;;;;5.95;2.53;;;10.10;99.90;;;;;;5098762;28;19904;-78
2023/04/02 13:23:28;;;;;;;3.55;0.82;;;10.10;99.90;;;;;;5016576;28;20029;-78
2023/04/02 13:25:57;;;;;;;1.42;0.50;;;10.10;99.90;;;;;;5110494;28;20042;-78
2023/04/02 13:28:23;;;;;;;1.27;0.57;;;10.20;99.90;;;;;;5115453;28;20031;-78
2023/04/02 13:30:49;;;;;;;0.68;0.38;;;10.20;99.90;;;;;;5115436;28;20146;-78
2023/04/02 13:33:16;;;;;;;0.55;0.40;;;10.30;99.90;;;;;;5096915;28;20508;-78
2023/04/02 13:35:42;;;;;;;1.85;0.40;;;10.40;99.90;;;;;;5115542;28;20073;-78
2023/04/02 13:38:08;;;;;;;0.60;0.30;;;10.40;99.90;;;;;;5115264;28;20063;-78
2023/04/02 13:40:36;;;;;;;3.10;1.30;;;10.40;99.90;;;;;;5115465;28;20416;-78